Chester Gap, Virginia
Current Conditions -  °F | °C
As of 11:15 PM on Wednesday 26 Nov 2014 (Local Time) from KFRR Reporting Station
Broken Clouds Broken Clouds  
Wind Chill: 32°   Ceiling: 7000
Heat Index: 32°   Visibility: 7mi
Dew Point: 32°   Wind: 0mph
Humidity: 100%   Direction: NA
Pressure: 29.99"   Gusts: NA
Location:  38.85°N, 78.14°W
Report Text: KFRR 270415Z AUTO 00000KT 7SM BKN070 00/00 A2999 RMK AO1
Loading
Personal Weather Stations






























Interactive Weather Map New forecast layout! Learn more

10-Day Weather Forecast

Advertisements
Track Severe Weather on mobile